sensor_id;sensor_type;location;lat;lon;timestamp;P1;durP1;ratioP1;P2;durP2;ratioP2
41261;SDS011;29629;52.532;13.352;2023-06-14T00:04:27;114.07;;;74.10;;
41261;SDS011;29629;52.532;13.352;2023-06-14T00:06:54;113.07;;;73.97;;
41261;SDS011;29629;52.532;13.352;2023-06-14T00:09:22;117.38;;;75.30;;
41261;SDS011;29629;52.532;13.352;2023-06-14T00:11:49;111.05;;;73.80;;
41261;SDS011;29629;52.532;13.352;2023-06-14T00:14:16;109.90;;;73.20;;
41261;SDS011;29629;52.532;13.352;2023-06-14T00:16:43;113.75;;;74.05;;
41261;SDS011;29629;52.532;13.352;2023-06-14T00:19:10;108.97;;;73.15;;
41261;SDS011;29629;52.532;13.352;2023-06-14T00:21:38;112.28;;;73.80;;
41261;SDS011;29629;52.532;13.352;2023-06-14T00:24:05;114.05;;;73.55;;
41261;SDS011;29629;52.532;13.352;2023-06-14T00:26:33;110.53;;;73.13;;
41261;SDS011;29629;52.532;13.352;2023-06-14T00:29:00;128.65;;;77.68;;
41261;SDS011;29629;52.532;13.352;2023-06-14T00:31:27;104.13;;;71.78;;
41261;SDS011;29629;52.532;13.352;2023-06-14T00:33:54;110.60;;;73.15;;
41261;SDS011;29629;52.532;13.352;2023-06-14T00:36:21;112.75;;;73.72;;
41261;SDS011;29629;52.532;13.352;2023-06-14T00:38:49;126.75;;;77.40;;
41261;SDS011;29629;52.532;13.352;2023-06-14T00:41:16;113.07;;;74.10;;
41261;SDS011;29629;52.532;13.352;2023-06-14T00:43:43;108.30;;;72.75;;
41261;SDS011;29629;52.532;13.352;2023-06-14T00:46:10;114.00;;;73.88;;
41261;SDS011;29629;52.532;13.352;2023-06-14T00:48:37;114.57;;;74.40;;
41261;SDS011;29629;52.532;13.352;2023-06-14T00:51:06;110.35;;;73.03;;
41261;SDS011;29629;52.532;13.352;2023-06-14T00:53:33;111.55;;;73.35;;
41261;SDS011;29629;52.532;13.352;2023-06-14T00:56:02;111.15;;;73.78;;
41261;SDS011;29629;52.532;13.352;2023-06-14T00:58:29;110.65;;;73.63;;
41261;SDS011;29629;52.532;13.352;2023-06-14T01:00:57;113.10;;;74.53;;
41261;SDS011;29629;52.532;13.352;2023-06-14T01:03:24;111.05;;;72.75;;
41261;SDS011;29629;52.532;13.352;2023-06-14T01:06:00;109.80;;;73.13;;
41261;SDS011;29629;52.532;13.352;2023-06-14T01:08:35;110.97;;;73.38;;
41261;SDS011;29629;52.532;13.352;2023-06-14T01:11:16;110.97;;;73.40;;
41261;SDS011;29629;52.532;13.352;2023-06-14T01:13:48;113.75;;;74.40;;
41261;SDS011;29629;52.532;13.352;2023-06-14T01:16:18;113.25;;;74.63;;
41261;SDS011;29629;52.532;13.352;2023-06-14T01:18:46;118.15;;;75.35;;
41261;SDS011;29629;52.532;13.352;2023-06-14T01:21:20;112.47;;;74.32;;
41261;SDS011;29629;52.532;13.352;2023-06-14T01:23:48;116.75;;;74.50;;
41261;SDS011;29629;52.532;13.352;2023-06-14T01:26:18;110.80;;;73.43;;
41261;SDS011;29629;52.532;13.352;2023-06-14T01:28:46;110.82;;;73.10;;
41261;SDS011;29629;52.532;13.352;2023-06-14T01:31:16;110.28;;;72.95;;
41261;SDS011;29629;52.532;13.352;2023-06-14T01:33:46;112.93;;;73.65;;
41261;SDS011;29629;52.532;13.352;2023-06-14T01:36:14;117.90;;;75.18;;
41261;SDS011;29629;52.532;13.352;2023-06-14T01:38:42;114.20;;;74.25;;
41261;SDS011;29629;52.532;13.352;2023-06-14T01:41:13;108.50;;;72.47;;
41261;SDS011;29629;52.532;13.352;2023-06-14T01:43:40;113.38;;;73.43;;
41261;SDS011;29629;52.532;13.352;2023-06-14T01:46:08;115.90;;;75.13;;
41261;SDS011;29629;52.532;13.352;2023-06-14T01:48:36;104.43;;;71.70;;
41261;SDS011;29629;52.532;13.352;2023-06-14T01:51:04;99.72;;;70.55;;
41261;SDS011;29629;52.532;13.352;2023-06-14T01:53:31;110.68;;;73.38;;
41261;SDS011;29629;52.532;13.352;2023-06-14T01:55:57;112.25;;;73.28;;
41261;SDS011;29629;52.532;13.352;2023-06-14T01:58:26;112.05;;;73.38;;
41261;SDS011;29629;52.532;13.352;2023-06-14T02:00:53;105.13;;;71.90;;
41261;SDS011;29629;52.532;13.352;2023-06-14T02:03:21;106.53;;;72.40;;
41261;SDS011;29629;52.532;13.352;2023-06-14T02:05:50;112.55;;;73.15;;
41261;SDS011;29629;52.532;13.352;2023-06-14T02:08:17;109.10;;;72.55;;
41261;SDS011;29629;52.532;13.352;2023-06-14T02:10:44;103.65;;;71.10;;
41261;SDS011;29629;52.532;13.352;2023-06-14T02:13:11;105.22;;;71.30;;
41261;SDS011;29629;52.532;13.352;2023-06-14T02:15:39;104.57;;;71.32;;
41261;SDS011;29629;52.532;13.352;2023-06-14T02:18:08;111.00;;;73.50;;
41261;SDS011;29629;52.532;13.352;2023-06-14T02:20:36;103.95;;;71.43;;
41261;SDS011;29629;52.532;13.352;2023-06-14T02:23:03;118.97;;;75.75;;
41261;SDS011;29629;52.532;13.352;2023-06-14T02:25:30;97.75;;;69.93;;
41261;SDS011;29629;52.532;13.352;2023-06-14T02:27:57;110.80;;;73.53;;
41261;SDS011;29629;52.532;13.352;2023-06-14T02:30:24;107.05;;;71.97;;
41261;SDS011;29629;52.532;13.352;2023-06-14T02:32:52;102.72;;;70.80;;
41261;SDS011;29629;52.532;13.352;2023-06-14T02:35:19;111.00;;;73.22;;
41261;SDS011;29629;52.532;13.352;2023-06-14T02:37:49;110.80;;;72.32;;
41261;SDS011;29629;52.532;13.352;2023-06-14T02:40:17;108.93;;;72.57;;
41261;SDS011;29629;52.532;13.352;2023-06-14T02:42:44;105.63;;;71.30;;
41261;SDS011;29629;52.532;13.352;2023-06-14T02:45:11;105.88;;;71.88;;
41261;SDS011;29629;52.532;13.352;2023-06-14T02:47:38;116.13;;;74.43;;
41261;SDS011;29629;52.532;13.352;2023-06-14T02:50:07;107.30;;;72.70;;
41261;SDS011;29629;52.532;13.352;2023-06-14T02:52:34;108.35;;;72.30;;
41261;SDS011;29629;52.532;13.352;2023-06-14T02:55:02;103.70;;;71.22;;
41261;SDS011;29629;52.532;13.352;2023-06-14T02:57:29;111.45;;;73.40;;
41261;SDS011;29629;52.532;13.352;2023-06-14T02:59:56;104.22;;;71.45;;
41261;SDS011;29629;52.532;13.352;2023-06-14T03:02:23;105.43;;;71.15;;
41261;SDS011;29629;52.532;13.352;2023-06-14T03:04:50;106.65;;;71.65;;
41261;SDS011;29629;52.532;13.352;2023-06-14T03:07:18;107.53;;;72.50;;
41261;SDS011;29629;52.532;13.352;2023-06-14T03:09:45;108.85;;;71.55;;
41261;SDS011;29629;52.532;13.352;2023-06-14T03:12:13;105.35;;;70.97;;
41261;SDS011;29629;52.532;13.352;2023-06-14T03:14:40;106.22;;;71.45;;
41261;SDS011;29629;52.532;13.352;2023-06-14T03:17:11;107.90;;;71.78;;
41261;SDS011;29629;52.532;13.352;2023-06-14T03:19:38;106.03;;;71.43;;
41261;SDS011;29629;52.532;13.352;2023-06-14T03:22:06;108.65;;;72.25;;
41261;SDS011;29629;52.532;13.352;2023-06-14T03:24:34;104.45;;;71.28;;
41261;SDS011;29629;52.532;13.352;2023-06-14T03:27:02;104.70;;;71.05;;
41261;SDS011;29629;52.532;13.352;2023-06-14T03:29:29;106.30;;;72.30;;
41261;SDS011;29629;52.532;13.352;2023-06-14T03:31:57;109.20;;;72.07;;
41261;SDS011;29629;52.532;13.352;2023-06-14T03:34:25;107.57;;;72.43;;
41261;SDS011;29629;52.532;13.352;2023-06-14T03:36:53;112.60;;;72.78;;
41261;SDS011;29629;52.532;13.352;2023-06-14T03:39:20;111.95;;;73.75;;
41261;SDS011;29629;52.532;13.352;2023-06-14T03:41:48;107.45;;;71.97;;
41261;SDS011;29629;52.532;13.352;2023-06-14T03:44:16;110.53;;;72.95;;
41261;SDS011;29629;52.532;13.352;2023-06-14T03:46:43;112.30;;;72.57;;
41261;SDS011;29629;52.532;13.352;2023-06-14T03:49:11;110.30;;;73.00;;
41261;SDS011;29629;52.532;13.352;2023-06-14T03:51:38;102.18;;;70.50;;
41261;SDS011;29629;52.532;13.352;2023-06-14T03:54:05;107.50;;;72.07;;
41261;SDS011;29629;52.532;13.352;2023-06-14T03:56:33;111.38;;;73.03;;
41261;SDS011;29629;52.532;13.352;2023-06-14T03:59:01;145.88;;;84.57;;
41261;SDS011;29629;52.532;13.352;2023-06-14T04:01:28;115.75;;;73.70;;
41261;SDS011;29629;52.532;13.352;2023-06-14T04:03:56;109.60;;;72.35;;
41261;SDS011;29629;52.532;13.352;2023-06-14T04:06:23;106.45;;;72.25;;
41261;SDS011;29629;52.532;13.352;2023-06-14T04:08:57;138.93;;;80.50;;
41261;SDS011;29629;52.532;13.352;2023-06-14T04:11:28;113.05;;;75.53;;
41261;SDS011;29629;52.532;13.352;2023-06-14T04:13:56;107.03;;;73.05;;
41261;SDS011;29629;52.532;13.352;2023-06-14T04:16:24;107.30;;;72.55;;
41261;SDS011;29629;52.532;13.352;2023-06-14T04:18:51;116.07;;;75.18;;
41261;SDS011;29629;52.532;13.352;2023-06-14T04:21:19;105.22;;;72.30;;
41261;SDS011;29629;52.532;13.352;2023-06-14T04:23:48;109.30;;;73.13;;
41261;SDS011;29629;52.532;13.352;2023-06-14T04:26:17;105.65;;;73.05;;
41261;SDS011;29629;52.532;13.352;2023-06-14T04:28:46;109.93;;;74.53;;
41261;SDS011;29629;52.532;13.352;2023-06-14T04:31:13;98.93;;;70.57;;
41261;SDS011;29629;52.532;13.352;2023-06-14T04:33:42;108.47;;;73.53;;
41261;SDS011;29629;52.532;13.352;2023-06-14T04:36:11;107.50;;;73.43;;
41261;SDS011;29629;52.532;13.352;2023-06-14T04:38:38;108.75;;;74.07;;
41261;SDS011;29629;52.532;13.352;2023-06-14T04:41:06;109.50;;;74.40;;
41261;SDS011;29629;52.532;13.352;2023-06-14T04:43:36;114.38;;;75.97;;
41261;SDS011;29629;52.532;13.352;2023-06-14T04:46:04;107.60;;;73.60;;
41261;SDS011;29629;52.532;13.352;2023-06-14T04:48:35;107.50;;;74.15;;
41261;SDS011;29629;52.532;13.352;2023-06-14T04:51:04;110.38;;;74.63;;
41261;SDS011;29629;52.532;13.352;2023-06-14T04:53:31;115.18;;;75.35;;
41261;SDS011;29629;52.532;13.352;2023-06-14T04:55:58;107.18;;;74.28;;
41261;SDS011;29629;52.532;13.352;2023-06-14T04:58:25;106.93;;;74.05;;
41261;SDS011;29629;52.532;13.352;2023-06-14T05:00:53;109.88;;;73.53;;
41261;SDS011;29629;52.532;13.352;2023-06-14T05:03:21;113.88;;;76.60;;
41261;SDS011;29629;52.532;13.352;2023-06-14T05:05:49;110.63;;;74.78;;
41261;SDS011;29629;52.532;13.352;2023-06-14T05:08:19;109.50;;;75.13;;
41261;SDS011;29629;52.532;13.352;2023-06-14T05:10:48;103.20;;;72.55;;
41261;SDS011;29629;52.532;13.352;2023-06-14T05:13:15;107.28;;;73.93;;
41261;SDS011;29629;52.532;13.352;2023-06-14T05:15:42;107.18;;;74.50;;
41261;SDS011;29629;52.532;13.352;2023-06-14T05:18:09;117.18;;;77.45;;
41261;SDS011;29629;52.532;13.352;2023-06-14T05:20:38;105.97;;;74.18;;
41261;SDS011;29629;52.532;13.352;2023-06-14T05:23:06;110.03;;;75.10;;
41261;SDS011;29629;52.532;13.352;2023-06-14T05:25:35;109.45;;;75.35;;
41261;SDS011;29629;52.532;13.352;2023-06-14T05:28:02;107.30;;;74.32;;
41261;SDS011;29629;52.532;13.352;2023-06-14T05:30:30;117.22;;;76.93;;
41261;SDS011;29629;52.532;13.352;2023-06-14T05:32:58;107.28;;;74.65;;
41261;SDS011;29629;52.532;13.352;2023-06-14T05:35:25;101.40;;;72.82;;
41261;SDS011;29629;52.532;13.352;2023-06-14T05:37:52;110.20;;;76.18;;
41261;SDS011;29629;52.532;13.352;2023-06-14T05:40:19;107.95;;;74.50;;
41261;SDS011;29629;52.532;13.352;2023-06-14T05:42:48;112.05;;;76.65;;
41261;SDS011;29629;52.532;13.352;2023-06-14T05:45:15;110.47;;;75.30;;
41261;SDS011;29629;52.532;13.352;2023-06-14T05:47:42;109.85;;;75.03;;
41261;SDS011;29629;52.532;13.352;2023-06-14T05:50:09;107.72;;;74.88;;
41261;SDS011;29629;52.532;13.352;2023-06-14T05:52:36;113.22;;;77.10;;
41261;SDS011;29629;52.532;13.352;2023-06-14T05:55:04;111.32;;;76.72;;
41261;SDS011;29629;52.532;13.352;2023-06-14T05:57:31;115.28;;;78.00;;
41261;SDS011;29629;52.532;13.352;2023-06-14T05:59:59;118.20;;;79.05;;
41261;SDS011;29629;52.532;13.352;2023-06-14T06:02:30;103.97;;;74.25;;
41261;SDS011;29629;52.532;13.352;2023-06-14T06:04:57;111.88;;;76.38;;
41261;SDS011;29629;52.532;13.352;2023-06-14T06:07:24;117.55;;;77.90;;
41261;SDS011;29629;52.532;13.352;2023-06-14T06:09:51;103.20;;;74.03;;
41261;SDS011;29629;52.532;13.352;2023-06-14T06:12:18;108.90;;;75.72;;
41261;SDS011;29629;52.532;13.352;2023-06-14T06:14:45;108.55;;;75.82;;
41261;SDS011;29629;52.532;13.352;2023-06-14T06:17:13;111.15;;;76.57;;
41261;SDS011;29629;52.532;13.352;2023-06-14T06:19:40;113.68;;;75.50;;
41261;SDS011;29629;52.532;13.352;2023-06-14T06:22:07;102.93;;;74.10;;
41261;SDS011;29629;52.532;13.352;2023-06-14T06:24:34;105.63;;;73.88;;
41261;SDS011;29629;52.532;13.352;2023-06-14T06:27:01;107.03;;;74.78;;
41261;SDS011;29629;52.532;13.352;2023-06-14T06:29:28;114.47;;;78.03;;
41261;SDS011;29629;52.532;13.352;2023-06-14T06:31:55;110.68;;;76.57;;
41261;SDS011;29629;52.532;13.352;2023-06-14T06:34:23;103.97;;;74.03;;
41261;SDS011;29629;52.532;13.352;2023-06-14T06:36:50;108.13;;;76.18;;
41261;SDS011;29629;52.532;13.352;2023-06-14T06:39:17;104.80;;;75.18;;
41261;SDS011;29629;52.532;13.352;2023-06-14T06:41:44;99.25;;;73.13;;
41261;SDS011;29629;52.532;13.352;2023-06-14T06:44:11;108.57;;;76.25;;
41261;SDS011;29629;52.532;13.352;2023-06-14T06:46:38;109.65;;;76.35;;
41261;SDS011;29629;52.532;13.352;2023-06-14T06:49:06;123.18;;;80.90;;
41261;SDS011;29629;52.532;13.352;2023-06-14T06:51:34;120.05;;;79.72;;
41261;SDS011;29629;52.532;13.352;2023-06-14T06:54:01;109.25;;;76.35;;
41261;SDS011;29629;52.532;13.352;2023-06-14T06:56:28;110.47;;;76.75;;
41261;SDS011;29629;52.532;13.352;2023-06-14T06:58:56;112.85;;;77.72;;
41261;SDS011;29629;52.532;13.352;2023-06-14T07:01:23;111.55;;;76.97;;
41261;SDS011;29629;52.532;13.352;2023-06-14T07:03:51;110.43;;;76.68;;
41261;SDS011;29629;52.532;13.352;2023-06-14T07:06:18;107.65;;;76.53;;
41261;SDS011;29629;52.532;13.352;2023-06-14T07:08:46;113.93;;;77.55;;
41261;SDS011;29629;52.532;13.352;2023-06-14T07:11:14;108.97;;;76.05;;
41261;SDS011;29629;52.532;13.352;2023-06-14T07:13:41;115.45;;;77.95;;
41261;SDS011;29629;52.532;13.352;2023-06-14T07:16:08;109.47;;;76.72;;
41261;SDS011;29629;52.532;13.352;2023-06-14T07:18:35;106.32;;;74.90;;
41261;SDS011;29629;52.532;13.352;2023-06-14T07:21:02;105.47;;;75.38;;
41261;SDS011;29629;52.532;13.352;2023-06-14T07:23:29;108.22;;;76.60;;
41261;SDS011;29629;52.532;13.352;2023-06-14T07:25:57;108.22;;;76.15;;
41261;SDS011;29629;52.532;13.352;2023-06-14T07:28:24;110.53;;;77.75;;
41261;SDS011;29629;52.532;13.352;2023-06-14T07:30:51;113.47;;;77.13;;
41261;SDS011;29629;52.532;13.352;2023-06-14T07:33:18;107.90;;;76.93;;
41261;SDS011;29629;52.532;13.352;2023-06-14T07:35:45;110.18;;;77.43;;
41261;SDS011;29629;52.532;13.352;2023-06-14T07:38:13;105.47;;;76.07;;
41261;SDS011;29629;52.532;13.352;2023-06-14T07:40:40;107.85;;;77.00;;
41261;SDS011;29629;52.532;13.352;2023-06-14T07:43:08;113.07;;;78.13;;
41261;SDS011;29629;52.532;13.352;2023-06-14T07:45:35;119.45;;;80.30;;
41261;SDS011;29629;52.532;13.352;2023-06-14T07:48:03;109.50;;;77.95;;
41261;SDS011;29629;52.532;13.352;2023-06-14T07:50:31;106.97;;;76.70;;
41261;SDS011;29629;52.532;13.352;2023-06-14T07:52:57;108.43;;;77.68;;
41261;SDS011;29629;52.532;13.352;2023-06-14T07:55:25;108.55;;;78.70;;
41261;SDS011;29629;52.532;13.352;2023-06-14T07:57:53;109.25;;;78.38;;
41261;SDS011;29629;52.532;13.352;2023-06-14T08:00:21;105.82;;;78.07;;
41261;SDS011;29629;52.532;13.352;2023-06-14T08:02:48;102.78;;;77.35;;
41261;SDS011;29629;52.532;13.352;2023-06-14T08:05:15;109.50;;;78.63;;
41261;SDS011;29629;52.532;13.352;2023-06-14T08:07:42;114.93;;;81.90;;
41261;SDS011;29629;52.532;13.352;2023-06-14T08:10:09;110.60;;;80.25;;
41261;SDS011;29629;52.532;13.352;2023-06-14T08:12:36;102.40;;;77.75;;
41261;SDS011;29629;52.532;13.352;2023-06-14T08:15:04;105.95;;;79.65;;
41261;SDS011;29629;52.532;13.352;2023-06-14T08:17:33;108.07;;;80.25;;
41261;SDS011;29629;52.532;13.352;2023-06-14T08:20:00;107.80;;;80.35;;
41261;SDS011;29629;52.532;13.352;2023-06-14T08:22:27;100.65;;;78.95;;
41261;SDS011;29629;52.532;13.352;2023-06-14T08:24:56;110.78;;;81.40;;
41261;SDS011;29629;52.532;13.352;2023-06-14T08:27:23;101.50;;;79.15;;
41261;SDS011;29629;52.532;13.352;2023-06-14T08:29:51;107.95;;;81.57;;
41261;SDS011;29629;52.532;13.352;2023-06-14T08:32:18;106.45;;;81.03;;
41261;SDS011;29629;52.532;13.352;2023-06-14T08:34:46;109.22;;;81.43;;
41261;SDS011;29629;52.532;13.352;2023-06-14T08:37:13;104.10;;;81.50;;
41261;SDS011;29629;52.532;13.352;2023-06-14T08:39:40;106.60;;;82.18;;
41261;SDS011;29629;52.532;13.352;2023-06-14T08:42:09;107.50;;;82.32;;
41261;SDS011;29629;52.532;13.352;2023-06-14T08:44:36;108.07;;;82.30;;
41261;SDS011;29629;52.532;13.352;2023-06-14T08:47:04;108.75;;;83.38;;
41261;SDS011;29629;52.532;13.352;2023-06-14T08:49:33;113.15;;;84.15;;
41261;SDS011;29629;52.532;13.352;2023-06-14T08:52:04;105.70;;;83.65;;
41261;SDS011;29629;52.532;13.352;2023-06-14T08:54:35;108.32;;;83.38;;
41261;SDS011;29629;52.532;13.352;2023-06-14T08:57:08;104.57;;;82.72;;
41261;SDS011;29629;52.532;13.352;2023-06-14T08:59:37;114.10;;;86.22;;
41261;SDS011;29629;52.532;13.352;2023-06-14T09:02:11;110.38;;;84.65;;
41261;SDS011;29629;52.532;13.352;2023-06-14T09:04:39;104.07;;;82.65;;
41261;SDS011;29629;52.532;13.352;2023-06-14T09:07:08;110.63;;;84.60;;
41261;SDS011;29629;52.532;13.352;2023-06-14T09:09:38;113.82;;;85.20;;
41261;SDS011;29629;52.532;13.352;2023-06-14T09:12:07;106.55;;;83.25;;
41261;SDS011;29629;52.532;13.352;2023-06-14T09:14:36;108.15;;;83.57;;
41261;SDS011;29629;52.532;13.352;2023-06-14T09:17:06;106.07;;;82.63;;
41261;SDS011;29629;52.532;13.352;2023-06-14T09:19:33;107.32;;;83.93;;
41261;SDS011;29629;52.532;13.352;2023-06-14T09:22:00;108.03;;;84.63;;
41261;SDS011;29629;52.532;13.352;2023-06-14T09:24:30;105.68;;;85.05;;
41261;SDS011;29629;52.532;13.352;2023-06-14T09:26:57;107.25;;;86.20;;
41261;SDS011;29629;52.532;13.352;2023-06-14T09:29:24;103.38;;;84.32;;
41261;SDS011;29629;52.532;13.352;2023-06-14T09:31:51;107.95;;;86.53;;
41261;SDS011;29629;52.532;13.352;2023-06-14T09:34:18;106.97;;;86.22;;
41261;SDS011;29629;52.532;13.352;2023-06-14T09:36:48;107.72;;;86.43;;
41261;SDS011;29629;52.532;13.352;2023-06-14T09:39:16;104.30;;;84.57;;
41261;SDS011;29629;52.532;13.352;2023-06-14T09:41:45;107.50;;;85.68;;
41261;SDS011;29629;52.532;13.352;2023-06-14T09:44:12;105.68;;;84.65;;
41261;SDS011;29629;52.532;13.352;2023-06-14T09:46:39;101.80;;;83.45;;
41261;SDS011;29629;52.532;13.352;2023-06-14T09:49:06;118.22;;;88.53;;
41261;SDS011;29629;52.532;13.352;2023-06-14T09:51:34;111.72;;;85.75;;
41261;SDS011;29629;52.532;13.352;2023-06-14T09:54:12;109.75;;;85.13;;
41261;SDS011;29629;52.532;13.352;2023-06-14T09:56:44;112.05;;;85.88;;
41261;SDS011;29629;52.532;13.352;2023-06-14T09:59:13;108.07;;;84.47;;
41261;SDS011;29629;52.532;13.352;2023-06-14T10:01:45;111.25;;;84.68;;
41261;SDS011;29629;52.532;13.352;2023-06-14T10:04:13;108.63;;;84.13;;
41261;SDS011;29629;52.532;13.352;2023-06-14T10:06:43;105.55;;;83.38;;
41261;SDS011;29629;52.532;13.352;2023-06-14T10:09:12;101.07;;;81.53;;
41261;SDS011;29629;52.532;13.352;2023-06-14T10:11:39;109.70;;;84.80;;
41261;SDS011;29629;52.532;13.352;2023-06-14T10:14:10;111.78;;;85.60;;
41261;SDS011;29629;52.532;13.352;2023-06-14T10:16:39;108.35;;;83.95;;
41261;SDS011;29629;52.532;13.352;2023-06-14T10:19:13;106.97;;;82.88;;
41261;SDS011;29629;52.532;13.352;2023-06-14T10:21:46;116.10;;;85.82;;
41261;SDS011;29629;52.532;13.352;2023-06-14T10:24:24;104.72;;;83.47;;
41261;SDS011;29629;52.532;13.352;2023-06-14T10:26:56;104.38;;;82.38;;
41261;SDS011;29629;52.532;13.352;2023-06-14T10:29:25;106.95;;;83.78;;
41261;SDS011;29629;52.532;13.352;2023-06-14T10:31:57;105.50;;;83.30;;
41261;SDS011;29629;52.532;13.352;2023-06-14T10:34:25;104.30;;;82.40;;
41261;SDS011;29629;52.532;13.352;2023-06-14T10:37:00;107.88;;;82.30;;
41261;SDS011;29629;52.532;13.352;2023-06-14T10:39:29;109.13;;;83.97;;
41261;SDS011;29629;52.532;13.352;2023-06-14T10:41:56;104.25;;;83.32;;
41261;SDS011;29629;52.532;13.352;2023-06-14T10:47:25;110.07;;;85.93;;
41261;SDS011;29629;52.532;13.352;2023-06-14T10:49:53;105.90;;;85.43;;
41261;SDS011;29629;52.532;13.352;2023-06-14T10:52:22;107.15;;;85.75;;
41261;SDS011;29629;52.532;13.352;2023-06-14T10:55:08;103.68;;;85.20;;
41261;SDS011;29629;52.532;13.352;2023-06-14T10:57:39;110.40;;;87.10;;
41261;SDS011;29629;52.532;13.352;2023-06-14T11:00:10;105.47;;;86.05;;
41261;SDS011;29629;52.532;13.352;2023-06-14T11:05:48;110.05;;;87.53;;
41261;SDS011;29629;52.532;13.352;2023-06-14T11:08:27;109.95;;;86.68;;
41261;SDS011;29629;52.532;13.352;2023-06-14T11:11:07;114.95;;;89.25;;
41261;SDS011;29629;52.532;13.352;2023-06-14T11:13:36;114.10;;;89.20;;
41261;SDS011;29629;52.532;13.352;2023-06-14T11:16:11;104.70;;;86.75;;
41261;SDS011;29629;52.532;13.352;2023-06-14T11:18:39;107.95;;;87.75;;
41261;SDS011;29629;52.532;13.352;2023-06-14T11:21:06;106.80;;;87.97;;
41261;SDS011;29629;52.532;13.352;2023-06-14T11:23:34;105.65;;;87.82;;
41261;SDS011;29629;52.532;13.352;2023-06-14T11:26:01;98.82;;;85.47;;
41261;SDS011;29629;52.532;13.352;2023-06-14T11:28:36;105.43;;;88.50;;
41261;SDS011;29629;52.532;13.352;2023-06-14T11:31:04;108.70;;;89.05;;
41261;SDS011;29629;52.532;13.352;2023-06-14T11:33:33;102.85;;;88.07;;
41261;SDS011;29629;52.532;13.352;2023-06-14T11:36:01;117.18;;;92.53;;
41261;SDS011;29629;52.532;13.352;2023-06-14T11:38:29;99.07;;;87.57;;
41261;SDS011;29629;52.532;13.352;2023-06-14T11:40:58;105.30;;;90.93;;
41261;SDS011;29629;52.532;13.352;2023-06-14T11:43:25;102.80;;;87.90;;
41261;SDS011;29629;52.532;13.352;2023-06-14T11:45:54;100.68;;;85.97;;
41261;SDS011;29629;52.532;13.352;2023-06-14T11:48:21;96.85;;;84.07;;
41261;SDS011;29629;52.532;13.352;2023-06-14T11:50:50;93.28;;;83.85;;
41261;SDS011;29629;52.532;13.352;2023-06-14T11:53:17;145.30;;;136.10;;
41261;SDS011;29629;52.532;13.352;2023-06-14T11:55:44;130.82;;;120.47;;
41261;SDS011;29629;52.532;13.352;2023-06-14T11:58:12;130.00;;;119.70;;
41261;SDS011;29629;52.532;13.352;2023-06-14T12:00:40;132.60;;;121.95;;
41261;SDS011;29629;52.532;13.352;2023-06-14T12:03:08;120.78;;;111.18;;
41261;SDS011;29629;52.532;13.352;2023-06-14T12:05:35;127.30;;;116.70;;
41261;SDS011;29629;52.532;13.352;2023-06-14T12:08:04;114.13;;;103.70;;
41261;SDS011;29629;52.532;13.352;2023-06-14T12:10:39;100.60;;;90.43;;
41261;SDS011;29629;52.532;13.352;2023-06-14T12:13:08;98.75;;;88.03;;
41261;SDS011;29629;52.532;13.352;2023-06-14T12:15:35;100.45;;;89.00;;
41261;SDS011;29629;52.532;13.352;2023-06-14T12:18:04;105.40;;;94.20;;
41261;SDS011;29629;52.532;13.352;2023-06-14T12:20:33;107.00;;;95.32;;
41261;SDS011;29629;52.532;13.352;2023-06-14T12:23:03;105.70;;;94.22;;
41261;SDS011;29629;52.532;13.352;2023-06-14T12:25:31;102.40;;;91.15;;
41261;SDS011;29629;52.532;13.352;2023-06-14T12:27:59;97.10;;;86.63;;
41261;SDS011;29629;52.532;13.352;2023-06-14T12:30:30;127.95;;;117.70;;
41261;SDS011;29629;52.532;13.352;2023-06-14T12:32:57;188.27;;;176.93;;
41261;SDS011;29629;52.532;13.352;2023-06-14T12:35:25;165.45;;;153.57;;
41261;SDS011;29629;52.532;13.352;2023-06-14T12:37:52;187.35;;;175.45;;
41261;SDS011;29629;52.532;13.352;2023-06-14T12:40:21;170.35;;;159.25;;
41261;SDS011;29629;52.532;13.352;2023-06-14T12:42:48;188.85;;;177.38;;
41261;SDS011;29629;52.532;13.352;2023-06-14T12:45:15;224.15;;;211.88;;
41261;SDS011;29629;52.532;13.352;2023-06-14T12:47:42;168.25;;;156.50;;
41261;SDS011;29629;52.532;13.352;2023-06-14T12:50:09;111.68;;;101.25;;
41261;SDS011;29629;52.532;13.352;2023-06-14T12:52:36;110.90;;;99.45;;
41261;SDS011;29629;52.532;13.352;2023-06-14T12:55:03;111.53;;;99.88;;
41261;SDS011;29629;52.532;13.352;2023-06-14T12:57:33;112.43;;;100.70;;
41261;SDS011;29629;52.532;13.352;2023-06-14T13:00:02;107.63;;;96.82;;
41261;SDS011;29629;52.532;13.352;2023-06-14T13:02:30;106.90;;;96.15;;
41261;SDS011;29629;52.532;13.352;2023-06-14T13:04:57;110.80;;;97.88;;
41261;SDS011;29629;52.532;13.352;2023-06-14T13:07:24;109.32;;;97.68;;
41261;SDS011;29629;52.532;13.352;2023-06-14T13:09:51;109.60;;;97.68;;
41261;SDS011;29629;52.532;13.352;2023-06-14T13:12:18;110.07;;;98.05;;
41261;SDS011;29629;52.532;13.352;2023-06-14T13:14:46;109.07;;;97.13;;
41261;SDS011;29629;52.532;13.352;2023-06-14T13:17:13;108.38;;;96.65;;
41261;SDS011;29629;52.532;13.352;2023-06-14T13:19:40;106.57;;;95.38;;
41261;SDS011;29629;52.532;13.352;2023-06-14T13:22:08;111.20;;;97.35;;
41261;SDS011;29629;52.532;13.352;2023-06-14T13:24:35;110.82;;;98.47;;
41261;SDS011;29629;52.532;13.352;2023-06-14T13:27:03;108.22;;;96.43;;
41261;SDS011;29629;52.532;13.352;2023-06-14T13:29:30;108.57;;;96.55;;
41261;SDS011;29629;52.532;13.352;2023-06-14T13:32:02;110.28;;;96.75;;
41261;SDS011;29629;52.532;13.352;2023-06-14T13:34:29;109.10;;;96.38;;
41261;SDS011;29629;52.532;13.352;2023-06-14T13:36:56;108.80;;;96.18;;
41261;SDS011;29629;52.532;13.352;2023-06-14T13:39:24;108.60;;;96.18;;
41261;SDS011;29629;52.532;13.352;2023-06-14T13:41:51;115.90;;;97.97;;
41261;SDS011;29629;52.532;13.352;2023-06-14T13:44:18;106.05;;;94.03;;
41261;SDS011;29629;52.532;13.352;2023-06-14T13:46:46;110.53;;;94.85;;
41261;SDS011;29629;52.532;13.352;2023-06-14T13:49:15;106.68;;;93.55;;
41261;SDS011;29629;52.532;13.352;2023-06-14T13:51:42;108.05;;;93.95;;
41261;SDS011;29629;52.532;13.352;2023-06-14T13:54:11;108.22;;;92.82;;
41261;SDS011;29629;52.532;13.352;2023-06-14T13:56:40;107.75;;;92.78;;
41261;SDS011;29629;52.532;13.352;2023-06-14T13:59:07;119.20;;;96.90;;
41261;SDS011;29629;52.532;13.352;2023-06-14T14:01:34;108.95;;;92.53;;
41261;SDS011;29629;52.532;13.352;2023-06-14T14:04:01;112.30;;;93.88;;
41261;SDS011;29629;52.532;13.352;2023-06-14T14:06:29;102.00;;;91.00;;
41261;SDS011;29629;52.532;13.352;2023-06-14T14:08:57;137.75;;;103.00;;
41261;SDS011;29629;52.532;13.352;2023-06-14T14:11:24;110.85;;;93.13;;